createdAt,value
2018-04-07T00:00:15.667Z,4.10
2018-04-07T00:10:12.341Z,3.84
2018-04-07T00:20:07.916Z,3.68
2018-04-07T00:30:05.040Z,3.62
2018-04-07T00:40:01.874Z,3.47
2018-04-07T00:49:53.572Z,3.66
2018-04-07T00:59:49.725Z,3.43
2018-04-07T01:09:46.720Z,3.46
2018-04-07T01:19:40.426Z,3.25
2018-04-07T01:29:37.770Z,3.10
2018-04-07T01:39:34.277Z,2.95
2018-04-07T01:49:29.566Z,2.91
2018-04-07T01:59:26.900Z,2.84
2018-04-07T02:09:21.188Z,2.84
2018-04-07T02:19:18.925Z,2.67
2018-04-07T02:29:13.865Z,2.66
2018-04-07T02:39:11.515Z,2.55
2018-04-07T02:49:07.595Z,2.53
2018-04-07T02:59:03.754Z,2.48
2018-04-07T03:09:01.854Z,2.24
2018-04-07T03:18:58.444Z,2.39
2018-04-07T03:28:54.153Z,2.30
2018-04-07T03:38:49.033Z,2.42
2018-04-07T03:48:47.181Z,2.19
2018-04-07T03:58:42.372Z,2.28
2018-04-07T04:08:39.000Z,2.05
2018-04-07T04:18:36.921Z,2.20
2018-04-07T04:28:34.003Z,2.24
2018-04-07T04:38:31.639Z,2.23
2018-04-07T04:48:26.725Z,2.41
2018-04-07T04:58:25.646Z,2.80
2018-04-07T05:08:22.873Z,2.96
2018-04-07T05:18:19.939Z,3.25
2018-04-07T05:28:19.291Z,3.98
2018-04-07T05:38:17.359Z,4.19
2018-04-07T05:48:11.688Z,4.56
2018-04-07T05:58:06.195Z,4.95
2018-04-07T06:08:03.104Z,5.41
2018-04-07T06:17:57.445Z,5.80
2018-04-07T06:27:48.882Z,6.39
2018-04-07T06:37:44.581Z,6.76
2018-04-07T06:47:40.916Z,7.38
2018-04-07T06:57:36.835Z,7.78
2018-04-07T07:07:34.016Z,8.43
2018-04-07T07:17:29.748Z,8.84
2018-04-07T07:27:25.447Z,9.65
2018-04-07T07:37:22.852Z,10.22
2018-04-07T07:47:18.184Z,10.55
2018-04-07T07:57:06.335Z,10.31
2018-04-07T08:07:03.552Z,10.15
2018-04-07T08:16:40.839Z,10.75
2018-04-07T08:26:18.448Z,11.53
2018-04-07T08:35:56.811Z,12.18
2018-04-07T08:45:38.904Z,12.55
2018-04-07T08:55:06.901Z,12.08
2018-04-07T09:04:42.290Z,11.97
2018-04-07T09:14:24.010Z,12.86
2018-04-07T09:23:54.078Z,13.14
2018-04-07T09:33:31.372Z,13.92
2018-04-07T09:43:08.426Z,13.77
2018-04-07T09:52:44.198Z,13.98
2018-04-07T10:02:21.201Z,14.50
2018-04-07T10:11:57.886Z,14.44
2018-04-07T10:21:39.631Z,14.17
2018-04-07T10:31:07.854Z,14.98
2018-04-07T10:40:45.324Z,14.87
2018-04-07T10:50:22.976Z,14.91
2018-04-07T11:00:00.432Z,16.14
2018-04-07T11:09:37.931Z,16.57
2018-04-07T11:19:15.273Z,16.85
2018-04-07T11:28:52.523Z,16.40
2018-04-07T11:38:30.623Z,19.75
2018-04-07T11:48:07.967Z,19.97
2018-04-07T11:57:50.096Z,18.67
2018-04-07T12:07:21.605Z,19.45
2018-04-07T12:16:59.198Z,20.79
2018-04-07T12:26:35.955Z,18.84
2018-04-07T12:36:18.317Z,19.42
2018-04-07T12:45:51.252Z,19.32
2018-04-07T12:55:20.656Z,20.20
2018-04-07T13:04:58.012Z,20.80
2018-04-07T13:14:37.070Z,21.76
2018-04-07T13:24:13.616Z,22.10
2018-04-07T13:33:56.038Z,23.20
2018-04-07T13:43:26.598Z,20.87
2018-04-07T13:53:08.993Z,22.44
2018-04-07T14:02:39.877Z,20.99
2018-04-07T14:12:18.563Z,21.42
2018-04-07T14:21:58.516Z,20.65
2018-04-07T14:31:37.171Z,21.41
2018-04-07T14:41:08.651Z,21.45
2018-04-07T14:50:44.736Z,20.46
2018-04-07T15:00:15.886Z,18.25
2018-04-07T15:09:42.243Z,17.43
2018-04-07T15:19:16.641Z,16.53
2018-04-07T15:28:50.333Z,16.23
2018-04-07T15:38:30.222Z,15.78
2018-04-07T15:48:05.748Z,14.98
2018-04-07T15:57:45.438Z,14.80
2018-04-07T16:07:13.348Z,14.60
2018-04-07T16:16:48.260Z,14.27
2018-04-07T16:26:28.717Z,13.95
2018-04-07T16:36:04.846Z,13.74
2018-04-07T16:45:41.546Z,13.56
2018-04-07T16:55:17.755Z,13.36
2018-04-07T17:04:54.500Z,13.27
2018-04-07T17:14:49.890Z,12.85
2018-04-07T17:24:46.799Z,13.03
2018-04-07T17:34:41.541Z,12.67
2018-04-07T17:44:39.716Z,12.56
2018-04-07T17:54:36.626Z,12.31
2018-04-07T18:04:33.265Z,12.19
2018-04-07T18:14:28.533Z,12.06
2018-04-07T18:24:19.886Z,12.00
2018-04-07T18:34:14.428Z,11.86
2018-04-07T18:44:09.847Z,11.76
2018-04-07T18:54:05.954Z,11.72
2018-04-07T19:04:00.519Z,11.38
2018-04-07T19:13:56.794Z,11.43
2018-04-07T19:23:51.964Z,11.34
2018-04-07T19:33:43.554Z,11.21
2018-04-07T19:43:32.718Z,11.10
2018-04-07T19:53:28.008Z,11.02
2018-04-07T20:03:17.599Z,11.02
2018-04-07T20:13:13.797Z,10.95
2018-04-07T20:23:06.062Z,10.80
2018-04-07T20:33:02.088Z,10.65
2018-04-07T20:42:55.512Z,10.60
2018-04-07T20:52:52.652Z,10.49
2018-04-07T21:02:48.320Z,10.44
2018-04-07T21:12:44.549Z,10.43
2018-04-07T21:22:41.489Z,10.41
2018-04-07T21:32:38.706Z,10.29
2018-04-07T21:42:35.068Z,10.34
2018-04-07T21:52:31.286Z,10.28
2018-04-07T22:02:26.395Z,10.34
2018-04-07T22:12:23.073Z,10.36
2018-04-07T22:22:20.711Z,10.46
2018-04-07T22:32:17.034Z,10.25
2018-04-07T22:42:11.522Z,10.43
2018-04-07T22:52:07.773Z,10.46
2018-04-07T23:02:04.407Z,10.29
2018-04-07T23:11:59.965Z,10.43
2018-04-07T23:21:58.244Z,10.43
2018-04-07T23:31:54.780Z,10.29
2018-04-07T23:41:51.649Z,10.40
2018-04-07T23:51:45.571Z,10.28
